sensor_id;sensor_type;location;lat;lon;timestamp;P1;durP1;ratioP1;P2;durP2;ratioP2
35290;SDS011;21411;50.024;19.220;2023-02-01T00:00:50;9.00;;;6.00;;
35290;SDS011;21411;50.024;19.220;2023-02-01T00:03:27;10.00;;;7.40;;
35290;SDS011;21411;50.024;19.220;2023-02-01T00:05:54;10.60;;;7.40;;
35290;SDS011;21411;50.024;19.220;2023-02-01T00:08:24;11.90;;;8.20;;
35290;SDS011;21411;50.024;19.220;2023-02-01T00:13:44;9.00;;;6.60;;
35290;SDS011;21411;50.024;19.220;2023-02-01T00:16:14;7.90;;;6.10;;
35290;SDS011;21411;50.024;19.220;2023-02-01T00:18:46;8.70;;;6.70;;
35290;SDS011;21411;50.024;19.220;2023-02-01T00:21:15;9.00;;;6.60;;
35290;SDS011;21411;50.024;19.220;2023-02-01T00:23:44;8.80;;;7.00;;
35290;SDS011;21411;50.024;19.220;2023-02-01T00:26:13;11.60;;;7.70;;
35290;SDS011;21411;50.024;19.220;2023-02-01T00:28:42;8.20;;;6.40;;
35290;SDS011;21411;50.024;19.220;2023-02-01T00:31:09;8.90;;;7.20;;
35290;SDS011;21411;50.024;19.220;2023-02-01T00:33:35;10.10;;;8.10;;
35290;SDS011;21411;50.024;19.220;2023-02-01T00:36:03;8.80;;;6.70;;
35290;SDS011;21411;50.024;19.220;2023-02-01T00:38:32;8.70;;;6.40;;
35290;SDS011;21411;50.024;19.220;2023-02-01T00:41:07;11.00;;;8.80;;
35290;SDS011;21411;50.024;19.220;2023-02-01T00:43:37;9.90;;;7.30;;
35290;SDS011;21411;50.024;19.220;2023-02-01T00:46:04;10.70;;;8.90;;
35290;SDS011;21411;50.024;19.220;2023-02-01T00:48:31;9.50;;;7.00;;
35290;SDS011;21411;50.024;19.220;2023-02-01T00:50:58;8.30;;;6.40;;
35290;SDS011;21411;50.024;19.220;2023-02-01T00:53:30;9.80;;;7.30;;
35290;SDS011;21411;50.024;19.220;2023-02-01T00:55:57;10.20;;;7.10;;
35290;SDS011;21411;50.024;19.220;2023-02-01T00:58:24;8.90;;;7.60;;
35290;SDS011;21411;50.024;19.220;2023-02-01T01:01:00;11.40;;;7.70;;
35290;SDS011;21411;50.024;19.220;2023-02-01T01:03:48;10.00;;;7.40;;
35290;SDS011;21411;50.024;19.220;2023-02-01T01:06:20;8.60;;;6.90;;
35290;SDS011;21411;50.024;19.220;2023-02-01T01:08:50;10.20;;;7.90;;
35290;SDS011;21411;50.024;19.220;2023-02-01T01:11:19;11.70;;;7.40;;
35290;SDS011;21411;50.024;19.220;2023-02-01T01:16:18;10.50;;;7.60;;
35290;SDS011;21411;50.024;19.220;2023-02-01T01:18:46;9.20;;;7.50;;
35290;SDS011;21411;50.024;19.220;2023-02-01T01:21:14;8.90;;;7.40;;
35290;SDS011;21411;50.024;19.220;2023-02-01T01:23:42;10.00;;;6.90;;
35290;SDS011;21411;50.024;19.220;2023-02-01T01:26:20;8.30;;;6.80;;
35290;SDS011;21411;50.024;19.220;2023-02-01T01:28:51;8.90;;;7.00;;
35290;SDS011;21411;50.024;19.220;2023-02-01T01:31:19;11.70;;;7.70;;
35290;SDS011;21411;50.024;19.220;2023-02-01T01:33:48;12.90;;;8.30;;
35290;SDS011;21411;50.024;19.220;2023-02-01T01:36:16;10.40;;;7.50;;
35290;SDS011;21411;50.024;19.220;2023-02-01T01:38:43;2.90;;;2.40;;
35290;SDS011;21411;50.024;19.220;2023-02-01T01:41:12;4.00;;;2.30;;
35290;SDS011;21411;50.024;19.220;2023-02-01T01:49:03;1.50;;;1.30;;
35290;SDS011;21411;50.024;19.220;2023-02-01T01:51:38;4.60;;;1.30;;
35290;SDS011;21411;50.024;19.220;2023-02-01T01:54:11;3.60;;;1.60;;
35290;SDS011;21411;50.024;19.220;2023-02-01T01:56:43;2.90;;;2.20;;
35290;SDS011;21411;50.024;19.220;2023-02-01T01:59:17;2.00;;;1.20;;
35290;SDS011;21411;50.024;19.220;2023-02-01T02:01:44;2.40;;;1.50;;
35290;SDS011;21411;50.024;19.220;2023-02-01T02:04:12;3.10;;;1.50;;
35290;SDS011;21411;50.024;19.220;2023-02-01T02:06:43;3.40;;;1.00;;
35290;SDS011;21411;50.024;19.220;2023-02-01T02:09:16;2.30;;;0.80;;
35290;SDS011;21411;50.024;19.220;2023-02-01T02:11:43;2.40;;;0.60;;
35290;SDS011;21411;50.024;19.220;2023-02-01T02:14:11;2.10;;;0.50;;
35290;SDS011;21411;50.024;19.220;2023-02-01T02:16:52;2.00;;;0.60;;
35290;SDS011;21411;50.024;19.220;2023-02-01T02:22:26;1.50;;;1.10;;
35290;SDS011;21411;50.024;19.220;2023-02-01T02:39:55;1.60;;;0.90;;
35290;SDS011;21411;50.024;19.220;2023-02-01T02:42:50;2.40;;;1.40;;
35290;SDS011;21411;50.024;19.220;2023-02-01T02:48:47;4.70;;;1.10;;
35290;SDS011;21411;50.024;19.220;2023-02-01T02:51:28;2.10;;;0.90;;
35290;SDS011;21411;50.024;19.220;2023-02-01T02:54:29;2.00;;;0.90;;
35290;SDS011;21411;50.024;19.220;2023-02-01T03:03:24;3.90;;;1.70;;
35290;SDS011;21411;50.024;19.220;2023-02-01T03:06:12;2.60;;;1.00;;
35290;SDS011;21411;50.024;19.220;2023-02-01T03:08:42;4.80;;;1.60;;
35290;SDS011;21411;50.024;19.220;2023-02-01T03:11:14;1.70;;;1.20;;
35290;SDS011;21411;50.024;19.220;2023-02-01T03:13:44;4.80;;;1.90;;
35290;SDS011;21411;50.024;19.220;2023-02-01T03:18:50;3.50;;;1.90;;
35290;SDS011;21411;50.024;19.220;2023-02-01T03:21:26;2.60;;;2.40;;
35290;SDS011;21411;50.024;19.220;2023-02-01T03:24:08;3.60;;;1.50;;
35290;SDS011;21411;50.024;19.220;2023-02-01T03:26:41;3.90;;;2.00;;
35290;SDS011;21411;50.024;19.220;2023-02-01T03:29:12;2.10;;;1.80;;
35290;SDS011;21411;50.024;19.220;2023-02-01T03:31:43;2.70;;;1.60;;
35290;SDS011;21411;50.024;19.220;2023-02-01T03:34:10;2.40;;;1.80;;
35290;SDS011;21411;50.024;19.220;2023-02-01T03:36:40;3.80;;;1.70;;
35290;SDS011;21411;50.024;19.220;2023-02-01T03:41:59;3.80;;;1.50;;
35290;SDS011;21411;50.024;19.220;2023-02-01T03:44:34;5.70;;;1.80;;
35290;SDS011;21411;50.024;19.220;2023-02-01T03:47:06;1.70;;;1.40;;
35290;SDS011;21411;50.024;19.220;2023-02-01T03:49:40;2.30;;;1.50;;
35290;SDS011;21411;50.024;19.220;2023-02-01T03:52:13;3.50;;;1.20;;
35290;SDS011;21411;50.024;19.220;2023-02-01T03:54:43;4.40;;;1.80;;
35290;SDS011;21411;50.024;19.220;2023-02-01T03:57:12;6.20;;;2.60;;
35290;SDS011;21411;50.024;19.220;2023-02-01T03:59:44;4.10;;;2.40;;
35290;SDS011;21411;50.024;19.220;2023-02-01T04:02:11;2.00;;;1.30;;
35290;SDS011;21411;50.024;19.220;2023-02-01T04:04:38;2.10;;;1.20;;
35290;SDS011;21411;50.024;19.220;2023-02-01T04:07:05;2.00;;;1.10;;
35290;SDS011;21411;50.024;19.220;2023-02-01T04:09:31;4.70;;;2.10;;
35290;SDS011;21411;50.024;19.220;2023-02-01T04:11:58;4.30;;;2.30;;
35290;SDS011;21411;50.024;19.220;2023-02-01T04:14:25;4.10;;;2.30;;
35290;SDS011;21411;50.024;19.220;2023-02-01T04:16:51;3.30;;;1.60;;
35290;SDS011;21411;50.024;19.220;2023-02-01T04:19:18;1.90;;;1.70;;
35290;SDS011;21411;50.024;19.220;2023-02-01T04:21:45;3.20;;;2.20;;
35290;SDS011;21411;50.024;19.220;2023-02-01T04:24:11;3.50;;;3.20;;
35290;SDS011;21411;50.024;19.220;2023-02-01T04:26:38;5.70;;;4.60;;
35290;SDS011;21411;50.024;19.220;2023-02-01T04:29:05;6.40;;;4.80;;
35290;SDS011;21411;50.024;19.220;2023-02-01T04:31:31;3.90;;;3.40;;
35290;SDS011;21411;50.024;19.220;2023-02-01T04:33:58;4.50;;;3.40;;
35290;SDS011;21411;50.024;19.220;2023-02-01T04:36:24;4.90;;;2.90;;
35290;SDS011;21411;50.024;19.220;2023-02-01T04:38:51;4.90;;;3.60;;
35290;SDS011;21411;50.024;19.220;2023-02-01T04:41:19;5.40;;;4.20;;
35290;SDS011;21411;50.024;19.220;2023-02-01T04:43:46;6.90;;;5.40;;
35290;SDS011;21411;50.024;19.220;2023-02-01T04:46:14;8.00;;;5.80;;
35290;SDS011;21411;50.024;19.220;2023-02-01T04:48:41;8.00;;;6.40;;
35290;SDS011;21411;50.024;19.220;2023-02-01T04:51:09;8.10;;;6.20;;
35290;SDS011;21411;50.024;19.220;2023-02-01T04:53:36;10.00;;;7.00;;
35290;SDS011;21411;50.024;19.220;2023-02-01T04:56:03;9.10;;;5.50;;
35290;SDS011;21411;50.024;19.220;2023-02-01T04:58:30;8.40;;;6.90;;
35290;SDS011;21411;50.024;19.220;2023-02-01T05:00:57;8.10;;;5.50;;
35290;SDS011;21411;50.024;19.220;2023-02-01T05:03:24;8.60;;;6.00;;
35290;SDS011;21411;50.024;19.220;2023-02-01T05:05:50;9.90;;;5.40;;
35290;SDS011;21411;50.024;19.220;2023-02-01T05:08:20;9.90;;;6.90;;
35290;SDS011;21411;50.024;19.220;2023-02-01T05:10:48;9.60;;;6.10;;
35290;SDS011;21411;50.024;19.220;2023-02-01T05:13:15;9.40;;;5.80;;
35290;SDS011;21411;50.024;19.220;2023-02-01T05:16:00;11.30;;;7.20;;
35290;SDS011;21411;50.024;19.220;2023-02-01T05:18:27;13.30;;;8.20;;
35290;SDS011;21411;50.024;19.220;2023-02-01T05:20:54;11.70;;;7.40;;
35290;SDS011;21411;50.024;19.220;2023-02-01T05:23:21;11.30;;;7.40;;
35290;SDS011;21411;50.024;19.220;2023-02-01T05:25:47;10.20;;;6.90;;
35290;SDS011;21411;50.024;19.220;2023-02-01T05:28:14;11.50;;;7.90;;
35290;SDS011;21411;50.024;19.220;2023-02-01T05:30:41;13.10;;;7.70;;
35290;SDS011;21411;50.024;19.220;2023-02-01T05:33:07;12.50;;;8.30;;
35290;SDS011;21411;50.024;19.220;2023-02-01T05:35:34;12.50;;;8.90;;
35290;SDS011;21411;50.024;19.220;2023-02-01T05:38:01;13.90;;;8.10;;
35290;SDS011;21411;50.024;19.220;2023-02-01T05:40:27;15.50;;;7.90;;
35290;SDS011;21411;50.024;19.220;2023-02-01T05:42:54;12.70;;;8.00;;
35290;SDS011;21411;50.024;19.220;2023-02-01T05:45:21;9.70;;;6.70;;
35290;SDS011;21411;50.024;19.220;2023-02-01T05:47:47;8.70;;;6.40;;
35290;SDS011;21411;50.024;19.220;2023-02-01T05:50:14;12.00;;;6.10;;
35290;SDS011;21411;50.024;19.220;2023-02-01T05:52:42;10.70;;;5.50;;
35290;SDS011;21411;50.024;19.220;2023-02-01T05:55:09;8.80;;;5.50;;
35290;SDS011;21411;50.024;19.220;2023-02-01T05:57:36;8.90;;;4.90;;
35290;SDS011;21411;50.024;19.220;2023-02-01T06:00:05;10.40;;;5.00;;
35290;SDS011;21411;50.024;19.220;2023-02-01T06:02:32;9.00;;;5.00;;
35290;SDS011;21411;50.024;19.220;2023-02-01T06:04:59;15.00;;;5.60;;
35290;SDS011;21411;50.024;19.220;2023-02-01T06:07:26;7.40;;;4.60;;
35290;SDS011;21411;50.024;19.220;2023-02-01T06:09:52;7.50;;;5.00;;
35290;SDS011;21411;50.024;19.220;2023-02-01T06:12:19;10.50;;;4.60;;
35290;SDS011;21411;50.024;19.220;2023-02-01T06:14:45;12.70;;;6.00;;
35290;SDS011;21411;50.024;19.220;2023-02-01T06:17:12;9.50;;;4.90;;
35290;SDS011;21411;50.024;19.220;2023-02-01T06:19:39;9.30;;;5.30;;
35290;SDS011;21411;50.024;19.220;2023-02-01T06:22:06;13.80;;;6.00;;
35290;SDS011;21411;50.024;19.220;2023-02-01T06:24:33;12.70;;;7.10;;
35290;SDS011;21411;50.024;19.220;2023-02-01T06:27:00;13.30;;;5.50;;
35290;SDS011;21411;50.024;19.220;2023-02-01T06:29:26;8.90;;;4.60;;
35290;SDS011;21411;50.024;19.220;2023-02-01T06:31:53;11.20;;;5.70;;
35290;SDS011;21411;50.024;19.220;2023-02-01T06:34:20;9.80;;;6.40;;
35290;SDS011;21411;50.024;19.220;2023-02-01T06:36:48;11.50;;;5.70;;
35290;SDS011;21411;50.024;19.220;2023-02-01T06:39:15;14.40;;;5.60;;
35290;SDS011;21411;50.024;19.220;2023-02-01T06:41:45;17.70;;;7.40;;
35290;SDS011;21411;50.024;19.220;2023-02-01T06:46:39;12.00;;;6.20;;
35290;SDS011;21411;50.024;19.220;2023-02-01T06:49:06;14.90;;;6.30;;
35290;SDS011;21411;50.024;19.220;2023-02-01T06:51:34;17.20;;;6.80;;
35290;SDS011;21411;50.024;19.220;2023-02-01T06:54:01;16.40;;;5.80;;
35290;SDS011;21411;50.024;19.220;2023-02-01T06:56:28;9.50;;;4.60;;
35290;SDS011;21411;50.024;19.220;2023-02-01T06:58:55;10.20;;;4.10;;
35290;SDS011;21411;50.024;19.220;2023-02-01T07:01:22;9.40;;;4.20;;
35290;SDS011;21411;50.024;19.220;2023-02-01T07:03:49;10.40;;;5.40;;
35290;SDS011;21411;50.024;19.220;2023-02-01T07:06:17;8.80;;;4.70;;
35290;SDS011;21411;50.024;19.220;2023-02-01T07:08:44;8.90;;;4.70;;
35290;SDS011;21411;50.024;19.220;2023-02-01T07:11:12;10.40;;;5.00;;
35290;SDS011;21411;50.024;19.220;2023-02-01T07:13:41;7.20;;;4.80;;
35290;SDS011;21411;50.024;19.220;2023-02-01T07:16:11;9.00;;;4.40;;
35290;SDS011;21411;50.024;19.220;2023-02-01T07:18:40;9.90;;;5.80;;
35290;SDS011;21411;50.024;19.220;2023-02-01T07:21:07;10.50;;;4.90;;
35290;SDS011;21411;50.024;19.220;2023-02-01T07:23:34;8.20;;;4.70;;
35290;SDS011;21411;50.024;19.220;2023-02-01T07:26:02;8.10;;;4.40;;
35290;SDS011;21411;50.024;19.220;2023-02-01T07:28:31;7.60;;;4.70;;
35290;SDS011;21411;50.024;19.220;2023-02-01T07:31:10;6.70;;;5.00;;
35290;SDS011;21411;50.024;19.220;2023-02-01T07:33:38;13.70;;;7.80;;
35290;SDS011;21411;50.024;19.220;2023-02-01T07:36:06;25.60;;;12.50;;
35290;SDS011;21411;50.024;19.220;2023-02-01T07:38:34;13.90;;;8.80;;
35290;SDS011;21411;50.024;19.220;2023-02-01T07:41:04;8.80;;;5.60;;
35290;SDS011;21411;50.024;19.220;2023-02-01T07:43:32;7.20;;;4.80;;
35290;SDS011;21411;50.024;19.220;2023-02-01T07:45:59;5.90;;;4.10;;
35290;SDS011;21411;50.024;19.220;2023-02-01T07:48:27;7.80;;;4.50;;
35290;SDS011;21411;50.024;19.220;2023-02-01T07:51:01;25.90;;;14.10;;
35290;SDS011;21411;50.024;19.220;2023-02-01T07:53:30;35.20;;;22.00;;
35290;SDS011;21411;50.024;19.220;2023-02-01T07:55:59;11.40;;;6.80;;
35290;SDS011;21411;50.024;19.220;2023-02-01T07:58:27;11.60;;;7.90;;
35290;SDS011;21411;50.024;19.220;2023-02-01T08:00:54;8.40;;;4.90;;
35290;SDS011;21411;50.024;19.220;2023-02-01T08:03:40;9.10;;;4.80;;
35290;SDS011;21411;50.024;19.220;2023-02-01T08:06:07;7.20;;;3.80;;
35290;SDS011;21411;50.024;19.220;2023-02-01T08:08:34;8.60;;;4.40;;
35290;SDS011;21411;50.024;19.220;2023-02-01T08:11:01;8.40;;;4.30;;
35290;SDS011;21411;50.024;19.220;2023-02-01T08:13:30;6.70;;;3.60;;
35290;SDS011;21411;50.024;19.220;2023-02-01T08:15:58;8.00;;;4.10;;
35290;SDS011;21411;50.024;19.220;2023-02-01T08:18:26;20.10;;;10.60;;
35290;SDS011;21411;50.024;19.220;2023-02-01T08:20:52;12.80;;;8.50;;
35290;SDS011;21411;50.024;19.220;2023-02-01T08:23:19;12.70;;;6.30;;
35290;SDS011;21411;50.024;19.220;2023-02-01T08:25:46;7.00;;;5.00;;
35290;SDS011;21411;50.024;19.220;2023-02-01T08:28:13;11.20;;;5.60;;
35290;SDS011;21411;50.024;19.220;2023-02-01T08:30:40;10.40;;;4.80;;
35290;SDS011;21411;50.024;19.220;2023-02-01T08:33:08;9.00;;;5.30;;
35290;SDS011;21411;50.024;19.220;2023-02-01T08:35:36;7.80;;;4.10;;
35290;SDS011;21411;50.024;19.220;2023-02-01T08:38:03;7.50;;;4.40;;
35290;SDS011;21411;50.024;19.220;2023-02-01T08:40:30;10.40;;;4.30;;
35290;SDS011;21411;50.024;19.220;2023-02-01T08:42:57;8.30;;;5.10;;
35290;SDS011;21411;50.024;19.220;2023-02-01T08:45:25;9.90;;;5.30;;
35290;SDS011;21411;50.024;19.220;2023-02-01T08:47:55;9.90;;;4.60;;
35290;SDS011;21411;50.024;19.220;2023-02-01T08:50:23;7.60;;;4.70;;
35290;SDS011;21411;50.024;19.220;2023-02-01T08:52:50;9.10;;;4.60;;
35290;SDS011;21411;50.024;19.220;2023-02-01T08:55:17;8.40;;;4.10;;
35290;SDS011;21411;50.024;19.220;2023-02-01T08:57:44;9.20;;;4.90;;
35290;SDS011;21411;50.024;19.220;2023-02-01T09:00:12;7.10;;;4.70;;
35290;SDS011;21411;50.024;19.220;2023-02-01T09:02:42;11.60;;;5.10;;
35290;SDS011;21411;50.024;19.220;2023-02-01T09:05:09;9.10;;;4.70;;
35290;SDS011;21411;50.024;19.220;2023-02-01T09:07:37;10.10;;;4.80;;
35290;SDS011;21411;50.024;19.220;2023-02-01T09:10:06;10.10;;;4.70;;
35290;SDS011;21411;50.024;19.220;2023-02-01T09:12:33;10.10;;;4.60;;
35290;SDS011;21411;50.024;19.220;2023-02-01T09:15:01;12.70;;;5.80;;
35290;SDS011;21411;50.024;19.220;2023-02-01T09:17:29;10.50;;;3.50;;
35290;SDS011;21411;50.024;19.220;2023-02-01T09:19:56;7.60;;;4.30;;
35290;SDS011;21411;50.024;19.220;2023-02-01T09:22:22;8.10;;;4.30;;
35290;SDS011;21411;50.024;19.220;2023-02-01T09:24:49;10.50;;;3.70;;
35290;SDS011;21411;50.024;19.220;2023-02-01T09:27:16;8.60;;;4.70;;
35290;SDS011;21411;50.024;19.220;2023-02-01T09:29:42;8.80;;;4.80;;
35290;SDS011;21411;50.024;19.220;2023-02-01T09:32:09;8.40;;;4.90;;
35290;SDS011;21411;50.024;19.220;2023-02-01T09:34:36;11.00;;;8.20;;
35290;SDS011;21411;50.024;19.220;2023-02-01T09:37:03;9.90;;;5.30;;
35290;SDS011;21411;50.024;19.220;2023-02-01T09:39:29;9.60;;;4.20;;
35290;SDS011;21411;50.024;19.220;2023-02-01T09:42:02;8.80;;;4.10;;
35290;SDS011;21411;50.024;19.220;2023-02-01T09:47:32;9.60;;;4.10;;
35290;SDS011;21411;50.024;19.220;2023-02-01T09:50:04;8.20;;;4.20;;
35290;SDS011;21411;50.024;19.220;2023-02-01T09:52:44;7.10;;;3.80;;
35290;SDS011;21411;50.024;19.220;2023-02-01T09:55:18;8.20;;;4.10;;
35290;SDS011;21411;50.024;19.220;2023-02-01T10:00:34;6.80;;;4.00;;
35290;SDS011;21411;50.024;19.220;2023-02-01T10:03:02;11.30;;;4.40;;
35290;SDS011;21411;50.024;19.220;2023-02-01T10:10:48;11.40;;;5.10;;
35290;SDS011;21411;50.024;19.220;2023-02-01T10:27:25;8.10;;;3.90;;
35290;SDS011;21411;50.024;19.220;2023-02-01T10:29:59;9.80;;;4.60;;
35290;SDS011;21411;50.024;19.220;2023-02-01T10:32:32;10.40;;;4.60;;
35290;SDS011;21411;50.024;19.220;2023-02-01T10:35:12;8.50;;;4.90;;
35290;SDS011;21411;50.024;19.220;2023-02-01T10:37:42;8.70;;;4.20;;
35290;SDS011;21411;50.024;19.220;2023-02-01T10:42:41;10.20;;;5.60;;
35290;SDS011;21411;50.024;19.220;2023-02-01T10:45:11;10.00;;;6.00;;
35290;SDS011;21411;50.024;19.220;2023-02-01T10:47:44;8.60;;;5.00;;
35290;SDS011;21411;50.024;19.220;2023-02-01T10:53:14;9.30;;;5.00;;
35290;SDS011;21411;50.024;19.220;2023-02-01T10:55:55;10.30;;;5.40;;
35290;SDS011;21411;50.024;19.220;2023-02-01T10:58:27;6.70;;;4.20;;
35290;SDS011;21411;50.024;19.220;2023-02-01T11:00:57;9.80;;;5.10;;
35290;SDS011;21411;50.024;19.220;2023-02-01T11:05:58;7.30;;;3.80;;
35290;SDS011;21411;50.024;19.220;2023-02-01T11:08:26;8.90;;;4.20;;
35290;SDS011;21411;50.024;19.220;2023-02-01T11:10:57;9.70;;;4.20;;
35290;SDS011;21411;50.024;19.220;2023-02-01T11:13:33;10.10;;;4.50;;
35290;SDS011;21411;50.024;19.220;2023-02-01T11:16:04;7.20;;;4.20;;
35290;SDS011;21411;50.024;19.220;2023-02-01T11:18:35;8.10;;;3.80;;
35290;SDS011;21411;50.024;19.220;2023-02-01T11:21:04;5.80;;;3.30;;
35290;SDS011;21411;50.024;19.220;2023-02-01T11:23:32;8.10;;;3.30;;
35290;SDS011;21411;50.024;19.220;2023-02-01T11:26:01;6.20;;;3.50;;
35290;SDS011;21411;50.024;19.220;2023-02-01T11:28:39;10.50;;;4.20;;
35290;SDS011;21411;50.024;19.220;2023-02-01T11:31:11;8.70;;;4.30;;
35290;SDS011;21411;50.024;19.220;2023-02-01T11:33:43;8.50;;;3.70;;
35290;SDS011;21411;50.024;19.220;2023-02-01T11:36:16;7.20;;;3.80;;
35290;SDS011;21411;50.024;19.220;2023-02-01T11:41:21;11.10;;;4.30;;
35290;SDS011;21411;50.024;19.220;2023-02-01T11:43:54;6.10;;;3.70;;
35290;SDS011;21411;50.024;19.220;2023-02-01T11:46:24;12.00;;;4.40;;
35290;SDS011;21411;50.024;19.220;2023-02-01T11:48:57;6.90;;;3.40;;
35290;SDS011;21411;50.024;19.220;2023-02-01T12:00:12;7.10;;;3.60;;
35290;SDS011;21411;50.024;19.220;2023-02-01T12:14:23;12.40;;;5.20;;
35290;SDS011;21411;50.024;19.220;2023-02-01T12:17:04;6.40;;;4.40;;
35290;SDS011;21411;50.024;19.220;2023-02-01T12:36:24;8.20;;;4.60;;
35290;SDS011;21411;50.024;19.220;2023-02-01T12:44:57;8.80;;;4.60;;
35290;SDS011;21411;50.024;19.220;2023-02-01T12:47:44;7.40;;;4.40;;
35290;SDS011;21411;50.024;19.220;2023-02-01T12:50:25;8.30;;;4.10;;
35290;SDS011;21411;50.024;19.220;2023-02-01T12:53:09;6.30;;;4.40;;
35290;SDS011;21411;50.024;19.220;2023-02-01T12:55:50;6.60;;;4.70;;
35290;SDS011;21411;50.024;19.220;2023-02-01T12:58:24;7.80;;;4.70;;
35290;SDS011;21411;50.024;19.220;2023-02-01T13:06:36;8.60;;;4.00;;
35290;SDS011;21411;50.024;19.220;2023-02-01T13:11:34;8.00;;;4.90;;
35290;SDS011;21411;50.024;19.220;2023-02-01T13:19:26;7.60;;;4.10;;
35290;SDS011;21411;50.024;19.220;2023-02-01T13:22:29;7.30;;;3.70;;
35290;SDS011;21411;50.024;19.220;2023-02-01T13:24:57;6.50;;;4.30;;
35290;SDS011;21411;50.024;19.220;2023-02-01T13:27:28;5.90;;;4.20;;
35290;SDS011;21411;50.024;19.220;2023-02-01T13:30:03;7.80;;;4.10;;
35290;SDS011;21411;50.024;19.220;2023-02-01T13:43:33;7.00;;;3.30;;
35290;SDS011;21411;50.024;19.220;2023-02-01T13:46:06;5.10;;;3.30;;
35290;SDS011;21411;50.024;19.220;2023-02-01T13:51:07;7.20;;;3.60;;
35290;SDS011;21411;50.024;19.220;2023-02-01T13:53:35;5.30;;;3.40;;
35290;SDS011;21411;50.024;19.220;2023-02-01T13:56:12;7.00;;;3.70;;
35290;SDS011;21411;50.024;19.220;2023-02-01T13:58:43;5.90;;;3.60;;
35290;SDS011;21411;50.024;19.220;2023-02-01T14:03:54;8.40;;;4.30;;
35290;SDS011;21411;50.024;19.220;2023-02-01T14:06:38;5.50;;;3.70;;
35290;SDS011;21411;50.024;19.220;2023-02-01T14:19:28;6.30;;;4.20;;
35290;SDS011;21411;50.024;19.220;2023-02-01T14:24:53;6.10;;;3.80;;
35290;SDS011;21411;50.024;19.220;2023-02-01T14:27:26;5.20;;;3.80;;
35290;SDS011;21411;50.024;19.220;2023-02-01T14:29:57;5.30;;;2.90;;
35290;SDS011;21411;50.024;19.220;2023-02-01T14:32:34;3.50;;;3.20;;
35290;SDS011;21411;50.024;19.220;2023-02-01T14:35:20;5.80;;;3.40;;
35290;SDS011;21411;50.024;19.220;2023-02-01T14:37:52;5.30;;;3.70;;
35290;SDS011;21411;50.024;19.220;2023-02-01T14:40:23;5.90;;;4.00;;
35290;SDS011;21411;50.024;19.220;2023-02-01T14:42:53;6.20;;;3.80;;
35290;SDS011;21411;50.024;19.220;2023-02-01T14:47:50;6.70;;;4.20;;
35290;SDS011;21411;50.024;19.220;2023-02-01T14:52:49;9.80;;;5.00;;
35290;SDS011;21411;50.024;19.220;2023-02-01T14:55:29;7.30;;;4.70;;
35290;SDS011;21411;50.024;19.220;2023-02-01T14:58:04;8.30;;;6.30;;
35290;SDS011;21411;50.024;19.220;2023-02-01T15:00:40;8.80;;;5.90;;
35290;SDS011;21411;50.024;19.220;2023-02-01T15:03:22;8.00;;;6.10;;
35290;SDS011;21411;50.024;19.220;2023-02-01T15:06:30;7.30;;;5.50;;
35290;SDS011;21411;50.024;19.220;2023-02-01T15:11:56;28.30;;;13.60;;
35290;SDS011;21411;50.024;19.220;2023-02-01T15:14:35;24.40;;;13.30;;
35290;SDS011;21411;50.024;19.220;2023-02-01T15:17:24;15.10;;;10.60;;
35290;SDS011;21411;50.024;19.220;2023-02-01T15:22:20;13.80;;;10.40;;
35290;SDS011;21411;50.024;19.220;2023-02-01T15:24:53;13.80;;;11.20;;
35290;SDS011;21411;50.024;19.220;2023-02-01T15:27:21;12.80;;;10.50;;
35290;SDS011;21411;50.024;19.220;2023-02-01T15:29:48;14.60;;;11.40;;
35290;SDS011;21411;50.024;19.220;2023-02-01T15:35:00;15.30;;;10.80;;
35290;SDS011;21411;50.024;19.220;2023-02-01T15:37:27;17.80;;;11.90;;
35290;SDS011;21411;50.024;19.220;2023-02-01T15:42:30;21.30;;;12.80;;
35290;SDS011;21411;50.024;19.220;2023-02-01T15:44:57;19.20;;;11.60;;
35290;SDS011;21411;50.024;19.220;2023-02-01T15:47:25;15.10;;;11.10;;
35290;SDS011;21411;50.024;19.220;2023-02-01T15:49:55;13.70;;;9.60;;
35290;SDS011;21411;50.024;19.220;2023-02-01T15:55:01;15.60;;;9.30;;
35290;SDS011;21411;50.024;19.220;2023-02-01T15:57:34;14.80;;;9.60;;
35290;SDS011;21411;50.024;19.220;2023-02-01T16:00:22;17.20;;;9.70;;
35290;SDS011;21411;50.024;19.220;2023-02-01T16:02:57;12.30;;;8.70;;
35290;SDS011;21411;50.024;19.220;2023-02-01T16:10:43;17.90;;;12.40;;
35290;SDS011;21411;50.024;19.220;2023-02-01T16:13:12;16.80;;;11.10;;
35290;SDS011;21411;50.024;19.220;2023-02-01T16:15:40;18.10;;;11.90;;
35290;SDS011;21411;50.024;19.220;2023-02-01T16:18:07;21.10;;;12.40;;
35290;SDS011;21411;50.024;19.220;2023-02-01T16:20:36;17.50;;;11.20;;
35290;SDS011;21411;50.024;19.220;2023-02-01T16:23:05;33.30;;;19.30;;
35290;SDS011;21411;50.024;19.220;2023-02-01T16:25:33;39.10;;;24.60;;
35290;SDS011;21411;50.024;19.220;2023-02-01T16:28:01;17.60;;;13.00;;
35290;SDS011;21411;50.024;19.220;2023-02-01T16:30:27;22.30;;;16.50;;
35290;SDS011;21411;50.024;19.220;2023-02-01T16:32:55;25.70;;;15.40;;
35290;SDS011;21411;50.024;19.220;2023-02-01T16:35:25;28.40;;;18.70;;
35290;SDS011;21411;50.024;19.220;2023-02-01T16:37:53;25.00;;;16.00;;
35290;SDS011;21411;50.024;19.220;2023-02-01T16:40:20;24.80;;;16.30;;
35290;SDS011;21411;50.024;19.220;2023-02-01T16:42:49;20.10;;;13.10;;
35290;SDS011;21411;50.024;19.220;2023-02-01T16:45:17;21.70;;;14.10;;
35290;SDS011;21411;50.024;19.220;2023-02-01T16:47:47;17.20;;;12.40;;
35290;SDS011;21411;50.024;19.220;2023-02-01T16:50:20;17.00;;;11.40;;
35290;SDS011;21411;50.024;19.220;2023-02-01T16:52:49;20.50;;;12.70;;
35290;SDS011;21411;50.024;19.220;2023-02-01T16:55:17;15.10;;;11.10;;
35290;SDS011;21411;50.024;19.220;2023-02-01T16:57:45;15.70;;;11.50;;
35290;SDS011;21411;50.024;19.220;2023-02-01T17:00:14;16.30;;;11.10;;
35290;SDS011;21411;50.024;19.220;2023-02-01T17:02:46;19.20;;;10.80;;
35290;SDS011;21411;50.024;19.220;2023-02-01T17:05:13;23.30;;;13.40;;
35290;SDS011;21411;50.024;19.220;2023-02-01T17:07:40;25.80;;;15.50;;
35290;SDS011;21411;50.024;19.220;2023-02-01T17:10:11;25.00;;;14.10;;
35290;SDS011;21411;50.024;19.220;2023-02-01T17:12:48;22.90;;;13.30;;
35290;SDS011;21411;50.024;19.220;2023-02-01T17:15:14;24.10;;;12.70;;
35290;SDS011;21411;50.024;19.220;2023-02-01T17:17:41;19.40;;;12.40;;
35290;SDS011;21411;50.024;19.220;2023-02-01T17:20:17;22.20;;;13.50;;
35290;SDS011;21411;50.024;19.220;2023-02-01T17:22:47;23.70;;;12.40;;
35290;SDS011;21411;50.024;19.220;2023-02-01T17:25:15;21.10;;;10.40;;
35290;SDS011;21411;50.024;19.220;2023-02-01T17:27:43;13.60;;;9.90;;
35290;SDS011;21411;50.024;19.220;2023-02-01T17:30:11;15.50;;;10.00;;
35290;SDS011;21411;50.024;19.220;2023-02-01T17:32:39;15.00;;;9.90;;
35290;SDS011;21411;50.024;19.220;2023-02-01T17:35:13;23.30;;;13.40;;
35290;SDS011;21411;50.024;19.220;2023-02-01T17:37:44;28.60;;;18.40;;
35290;SDS011;21411;50.024;19.220;2023-02-01T17:40:11;25.60;;;16.70;;
35290;SDS011;21411;50.024;19.220;2023-02-01T17:42:39;18.70;;;14.10;;
35290;SDS011;21411;50.024;19.220;2023-02-01T17:47:49;25.60;;;15.70;;
35290;SDS011;21411;50.024;19.220;2023-02-01T17:50:15;26.90;;;16.90;;
35290;SDS011;21411;50.024;19.220;2023-02-01T17:52:42;27.90;;;17.70;;
35290;SDS011;21411;50.024;19.220;2023-02-01T17:55:16;29.70;;;20.30;;
35290;SDS011;21411;50.024;19.220;2023-02-01T17:57:45;26.60;;;19.60;;